createdAt,value
2023-03-24T00:00:21.583Z,13.90
2023-03-24T00:02:49.839Z,13.80
2023-03-24T00:05:17.796Z,13.90
2023-03-24T00:10:14.956Z,13.80
2023-03-24T00:12:42.678Z,13.80
2023-03-24T00:15:11.216Z,13.80
2023-03-24T00:17:39.545Z,13.80
2023-03-24T00:20:07.996Z,13.80
2023-03-24T00:22:34.752Z,13.80
2023-03-24T00:25:04.232Z,13.80
2023-03-24T00:27:31.183Z,14.00
2023-03-24T00:29:59.504Z,13.80
2023-03-24T00:32:27.272Z,13.80
2023-03-24T00:34:54.210Z,13.80
2023-03-24T00:37:20.995Z,13.90
2023-03-24T00:39:47.521Z,13.80
2023-03-24T00:42:14.142Z,13.80
2023-03-24T00:44:40.720Z,13.70
2023-03-24T00:47:07.354Z,13.70
2023-03-24T00:49:44.696Z,13.70
2023-03-24T00:52:15.940Z,13.60
2023-03-24T00:54:43.316Z,13.60
2023-03-24T00:57:12.787Z,13.60
2023-03-24T00:59:42.503Z,13.60
2023-03-24T01:02:11.869Z,13.60
2023-03-24T01:04:39.531Z,13.50
2023-03-24T01:07:07.831Z,13.50
2023-03-24T01:09:36.600Z,13.40
2023-03-24T01:12:04.323Z,13.40
2023-03-24T01:14:31.493Z,13.30
2023-03-24T01:16:58.555Z,13.40
2023-03-24T01:19:25.388Z,13.30
2023-03-24T01:21:54.281Z,13.30
2023-03-24T01:24:21.751Z,13.20
2023-03-24T01:26:48.648Z,13.40
2023-03-24T01:29:15.490Z,13.20
2023-03-24T01:31:42.158Z,13.20
2023-03-24T01:34:08.749Z,13.10
2023-03-24T01:36:35.350Z,13.10
2023-03-24T01:39:02.182Z,13.10
2023-03-24T01:41:32.450Z,13.00
2023-03-24T01:43:59.649Z,13.00
2023-03-24T01:46:29.557Z,12.90
2023-03-24T01:49:07.159Z,13.00
2023-03-24T01:51:38.599Z,12.90
2023-03-24T01:54:08.549Z,12.90
2023-03-24T01:56:36.800Z,12.90
2023-03-24T01:59:08.192Z,12.90
2023-03-24T02:01:34.795Z,12.90
2023-03-24T02:04:04.090Z,12.90
2023-03-24T02:06:33.188Z,12.80
2023-03-24T02:09:01.486Z,12.90
2023-03-24T02:11:32.026Z,12.90
2023-03-24T02:13:58.686Z,12.90
2023-03-24T02:16:28.349Z,12.90
2023-03-24T02:18:57.675Z,12.80
2023-03-24T02:21:32.778Z,12.80
2023-03-24T02:24:02.450Z,12.80
2023-03-24T02:26:37.411Z,12.80
2023-03-24T02:29:16.048Z,12.80
2023-03-24T02:32:05.238Z,12.80
2023-03-24T02:34:41.185Z,12.90
2023-03-24T02:37:27.595Z,12.90
2023-03-24T02:39:58.098Z,12.90
2023-03-24T02:42:45.299Z,12.90
2023-03-24T02:45:27.689Z,12.90
2023-03-24T02:48:00.447Z,12.90
2023-03-24T02:50:35.302Z,12.90
2023-03-24T02:53:12.063Z,12.90
2023-03-24T02:55:46.963Z,13.00
2023-03-24T02:58:22.131Z,13.00
2023-03-24T03:00:52.289Z,13.00
2023-03-24T03:03:25.373Z,13.00
2023-03-24T03:05:54.560Z,12.90
2023-03-24T03:08:21.894Z,12.90
2023-03-24T03:10:50.268Z,12.90
2023-03-24T03:13:21.597Z,12.90
2023-03-24T03:15:50.416Z,12.80
2023-03-24T03:18:21.060Z,12.80
2023-03-24T03:20:53.090Z,12.80
2023-03-24T03:23:23.681Z,12.80
2023-03-24T03:25:53.016Z,12.80
2023-03-24T03:28:22.413Z,12.80
2023-03-24T03:30:57.540Z,12.80
2023-03-24T03:33:26.381Z,12.80
2023-03-24T03:36:05.105Z,12.80
2023-03-24T03:38:34.681Z,12.80
2023-03-24T03:41:03.511Z,12.70
2023-03-24T03:43:31.261Z,12.80
2023-03-24T03:45:58.891Z,12.80
2023-03-24T03:48:26.619Z,12.80
2023-03-24T03:51:06.354Z,12.80
2023-03-24T03:53:43.123Z,12.80
2023-03-24T03:56:10.041Z,12.80
2023-03-24T03:58:36.905Z,12.80
2023-03-24T04:01:03.936Z,12.80
2023-03-24T04:03:37.128Z,12.80
2023-03-24T04:06:04.144Z,12.70
2023-03-24T04:08:41.240Z,12.80
2023-03-24T04:11:15.527Z,12.70
2023-03-24T04:13:48.103Z,12.80
2023-03-24T04:16:33.842Z,12.80
2023-03-24T04:19:10.416Z,12.80
2023-03-24T04:21:55.822Z,12.70
2023-03-24T04:24:29.096Z,12.80
2023-03-24T04:27:00.595Z,12.80
2023-03-24T04:29:42.476Z,12.80
2023-03-24T04:32:20.828Z,12.70
2023-03-24T04:34:50.808Z,12.70
2023-03-24T04:37:22.876Z,12.80
2023-03-24T04:39:50.330Z,12.80
2023-03-24T04:42:25.502Z,12.80
2023-03-24T04:44:52.119Z,12.80
2023-03-24T04:47:24.326Z,12.80
2023-03-24T04:49:51.073Z,12.90
2023-03-24T04:52:18.170Z,12.80
2023-03-24T04:54:44.962Z,12.70
2023-03-24T04:57:11.627Z,12.70
2023-03-24T04:59:38.370Z,12.70
2023-03-24T05:02:05.666Z,12.70
2023-03-24T05:04:32.378Z,12.70
2023-03-24T05:06:58.918Z,12.70
2023-03-24T05:09:25.969Z,12.70
2023-03-24T05:11:52.691Z,12.70
2023-03-24T05:14:19.932Z,12.70
2023-03-24T05:16:46.511Z,12.70
2023-03-24T05:19:13.191Z,12.70
2023-03-24T05:21:39.804Z,12.80
2023-03-24T05:24:06.800Z,12.90
2023-03-24T05:26:33.546Z,12.90
2023-03-24T05:29:00.405Z,12.90
2023-03-24T05:31:27.194Z,13.00
2023-03-24T05:33:53.923Z,13.00
2023-03-24T05:36:20.539Z,13.10
2023-03-24T05:38:47.147Z,13.20
2023-03-24T05:41:13.720Z,13.30
2023-03-24T05:43:40.320Z,13.30
2023-03-24T05:46:07.062Z,13.30
2023-03-24T05:48:33.702Z,13.30
2023-03-24T05:51:00.304Z,13.40
2023-03-24T05:53:26.880Z,13.40
2023-03-24T05:55:53.745Z,13.40
2023-03-24T05:58:21.503Z,13.50
2023-03-24T06:00:48.323Z,13.50
2023-03-24T06:03:17.557Z,13.60
2023-03-24T06:05:46.059Z,14.40
2023-03-24T06:08:13.012Z,15.50
2023-03-24T06:10:40.674Z,16.00
2023-03-24T06:13:09.054Z,15.80
2023-03-24T06:15:36.066Z,15.40
2023-03-24T06:18:05.314Z,15.20
2023-03-24T06:20:32.332Z,14.90
2023-03-24T06:22:59.790Z,14.80
2023-03-24T06:25:28.625Z,14.70
2023-03-24T06:27:55.355Z,14.50
2023-03-24T06:30:21.985Z,14.50
2023-03-24T06:32:48.846Z,14.40
2023-03-24T06:35:17.253Z,14.30
2023-03-24T06:37:44.812Z,14.20
2023-03-24T06:40:14.417Z,14.20
2023-03-24T06:42:41.066Z,14.20
2023-03-24T06:45:08.495Z,14.10
2023-03-24T06:47:35.113Z,14.10
2023-03-24T06:50:01.781Z,14.10
2023-03-24T06:52:28.436Z,14.10
2023-03-24T06:54:55.020Z,14.10
2023-03-24T06:57:21.796Z,14.10
2023-03-24T06:59:49.140Z,14.20
2023-03-24T07:02:15.930Z,14.20
2023-03-24T07:04:42.738Z,14.30
2023-03-24T07:07:30.985Z,14.50
2023-03-24T07:09:56.578Z,14.60
2023-03-24T07:12:23.188Z,14.70
2023-03-24T07:14:49.783Z,14.70
2023-03-24T07:17:16.337Z,14.80
2023-03-24T07:19:43.093Z,14.90
2023-03-24T07:22:09.760Z,15.00
2023-03-24T07:24:36.302Z,15.10
2023-03-24T07:27:03.247Z,15.20
2023-03-24T07:29:29.925Z,15.20
2023-03-24T07:31:58.744Z,15.20
2023-03-24T07:34:28.447Z,15.20
2023-03-24T07:36:55.528Z,15.20
2023-03-24T07:39:22.131Z,15.20
2023-03-24T07:41:48.678Z,15.20
2023-03-24T07:44:15.803Z,15.10
2023-03-24T07:46:42.395Z,15.20
2023-03-24T07:49:18.785Z,15.70
2023-03-24T07:51:46.228Z,16.70
2023-03-24T07:54:12.990Z,17.40
2023-03-24T07:56:39.764Z,17.60
2023-03-24T07:59:06.448Z,17.90
2023-03-24T08:01:33.052Z,18.00
2023-03-24T08:03:59.882Z,17.40
2023-03-24T08:06:26.594Z,16.90
2023-03-24T08:08:53.165Z,16.60
2023-03-24T08:11:19.695Z,16.30
2023-03-24T08:13:46.396Z,16.20
2023-03-24T08:16:13.065Z,16.10
2023-03-24T08:18:39.725Z,16.00
2023-03-24T08:21:06.555Z,15.90
2023-03-24T08:23:33.257Z,15.90
2023-03-24T08:25:59.860Z,15.90
2023-03-24T08:28:26.439Z,15.90
2023-03-24T08:30:53.144Z,15.90
2023-03-24T08:33:19.818Z,15.90
2023-03-24T08:35:46.747Z,15.70
2023-03-24T08:38:16.823Z,15.70
2023-03-24T08:40:44.814Z,15.70
2023-03-24T08:43:13.903Z,15.60
2023-03-24T08:45:40.915Z,15.60
2023-03-24T08:48:08.396Z,15.60
2023-03-24T08:50:37.071Z,15.60
2023-03-24T08:53:04.094Z,15.60
2023-03-24T08:55:30.912Z,15.70
2023-03-24T08:57:57.618Z,15.60
2023-03-24T09:00:24.816Z,15.70
2023-03-24T09:02:52.599Z,15.60
2023-03-24T09:05:22.776Z,15.50
2023-03-24T09:07:56.524Z,15.40
2023-03-24T09:10:23.062Z,15.30
2023-03-24T09:12:49.838Z,15.30
2023-03-24T09:15:16.452Z,15.20
2023-03-24T09:17:43.429Z,15.20
2023-03-24T09:20:11.967Z,15.10
2023-03-24T09:22:40.286Z,15.10
2023-03-24T09:25:08.476Z,15.00
2023-03-24T09:27:35.040Z,14.90
2023-03-24T09:30:02.230Z,15.00
2023-03-24T09:32:29.017Z,14.80
2023-03-24T09:34:55.639Z,14.70
2023-03-24T09:37:22.259Z,14.70
2023-03-24T09:39:49.241Z,14.80
2023-03-24T09:42:23.055Z,14.70
2023-03-24T09:44:57.735Z,14.70
2023-03-24T09:47:50.825Z,14.70
2023-03-24T09:50:23.255Z,14.80
2023-03-24T09:52:51.739Z,14.80
2023-03-24T09:55:23.825Z,15.00
2023-03-24T09:57:51.252Z,15.00
2023-03-24T10:00:20.909Z,15.00
2023-03-24T10:02:49.085Z,15.20
2023-03-24T10:05:19.731Z,15.40
2023-03-24T10:07:52.625Z,15.60
2023-03-24T10:10:37.981Z,15.70
2023-03-24T10:13:12.018Z,15.80
2023-03-24T10:15:57.586Z,16.10
2023-03-24T10:18:24.175Z,16.20
2023-03-24T10:20:54.327Z,16.40
2023-03-24T10:23:23.800Z,16.40
2023-03-24T10:26:02.794Z,16.50
2023-03-24T10:28:35.580Z,16.60
2023-03-24T10:31:05.077Z,16.40
2023-03-24T10:33:33.513Z,16.40
2023-03-24T10:36:07.990Z,16.20
2023-03-24T10:38:35.997Z,16.30
2023-03-24T10:41:02.807Z,16.40
2023-03-24T10:43:29.746Z,16.30
2023-03-24T10:45:57.616Z,16.50
2023-03-24T10:48:54.388Z,16.50
2023-03-24T10:51:27.085Z,16.40
2023-03-24T10:54:13.197Z,16.50
2023-03-24T10:56:41.357Z,16.50
2023-03-24T10:59:22.574Z,16.50
2023-03-24T11:01:49.282Z,16.50
2023-03-24T11:04:17.364Z,16.50
2023-03-24T11:07:01.325Z,16.40
2023-03-24T11:09:29.657Z,16.30
2023-03-24T11:11:58.442Z,16.20
2023-03-24T11:14:28.518Z,16.30
2023-03-24T11:17:21.551Z,16.40
2023-03-24T11:19:58.158Z,16.50
2023-03-24T11:22:25.293Z,16.40
2023-03-24T11:24:54.974Z,16.40
2023-03-24T11:27:21.616Z,16.30
2023-03-24T11:29:54.936Z,16.40
2023-03-24T11:32:27.029Z,16.40
2023-03-24T11:35:01.374Z,16.50
2023-03-24T11:37:29.334Z,16.60
2023-03-24T11:40:15.656Z,16.70
2023-03-24T11:42:46.049Z,16.80
2023-03-24T11:45:22.302Z,16.80
2023-03-24T11:47:50.270Z,16.90
2023-03-24T11:50:19.696Z,17.50
2023-03-24T11:52:54.915Z,18.20
2023-03-24T11:55:29.264Z,18.80
2023-03-24T11:57:58.867Z,19.40
2023-03-24T12:00:29.493Z,19.60
2023-03-24T12:03:25.860Z,19.80
2023-03-24T12:05:54.962Z,20.00
2023-03-24T12:08:44.330Z,20.20
2023-03-24T12:11:19.190Z,20.10
2023-03-24T12:13:49.117Z,20.00
2023-03-24T12:16:30.889Z,20.00
2023-03-24T12:19:16.417Z,20.00
2023-03-24T12:21:58.377Z,20.10
2023-03-24T12:24:38.644Z,20.30
2023-03-24T12:27:05.196Z,20.30
2023-03-24T12:29:38.901Z,19.90
2023-03-24T12:32:24.122Z,19.80
2023-03-24T12:35:00.269Z,19.10
2023-03-24T12:37:45.237Z,18.80
2023-03-24T12:40:13.099Z,18.80
2023-03-24T12:42:44.437Z,18.80
2023-03-24T12:45:11.019Z,18.90
2023-03-24T12:47:49.975Z,19.00
2023-03-24T12:50:35.253Z,19.10
2023-03-24T12:53:24.126Z,19.10
2023-03-24T12:55:50.926Z,19.20
2023-03-24T12:58:23.466Z,19.40
2023-03-24T13:01:10.499Z,20.10
2023-03-24T13:03:38.722Z,20.90
2023-03-24T13:06:29.315Z,21.20
2023-03-24T13:09:03.529Z,20.50
2023-03-24T13:11:50.539Z,19.90
2023-03-24T13:14:20.891Z,19.50
2023-03-24T13:16:48.046Z,19.30
2023-03-24T13:19:17.896Z,19.40
2023-03-24T13:21:44.585Z,19.50
2023-03-24T13:24:14.364Z,19.60
2023-03-24T13:26:51.098Z,19.80
2023-03-24T13:29:17.798Z,19.90
2023-03-24T13:31:46.820Z,19.80
2023-03-24T13:34:35.037Z,19.80
2023-03-24T13:37:01.599Z,19.60
2023-03-24T13:39:28.793Z,19.50
2023-03-24T13:41:57.178Z,19.40
2023-03-24T13:44:30.412Z,19.00
2023-03-24T13:47:03.192Z,18.80
2023-03-24T13:49:30.560Z,18.50
2023-03-24T13:51:57.417Z,18.10
2023-03-24T13:54:25.919Z,17.50
2023-03-24T13:56:54.586Z,17.00
2023-03-24T13:59:25.349Z,16.90
2023-03-24T14:02:09.620Z,16.80
2023-03-24T14:04:46.906Z,16.60
2023-03-24T14:07:32.463Z,16.40
2023-03-24T14:10:12.055Z,16.30
2023-03-24T14:12:51.852Z,16.30
2023-03-24T14:15:22.599Z,16.40
2023-03-24T14:17:53.364Z,16.50
2023-03-24T14:20:25.969Z,16.40
2023-03-24T14:22:53.113Z,16.30
2023-03-24T14:25:24.761Z,16.30
2023-03-24T14:27:52.324Z,16.20
2023-03-24T14:30:26.093Z,16.10
2023-03-24T14:32:54.958Z,16.00
2023-03-24T14:35:32.127Z,15.80
2023-03-24T14:38:04.523Z,15.60
2023-03-24T14:40:38.553Z,15.50
2023-03-24T14:43:24.978Z,15.50
2023-03-24T14:45:53.214Z,15.60
2023-03-24T14:48:28.129Z,15.70
2023-03-24T14:50:55.436Z,15.60
2023-03-24T14:53:22.169Z,15.60
2023-03-24T14:55:48.944Z,15.60
2023-03-24T14:58:22.147Z,15.50
2023-03-24T15:01:06.411Z,15.30
2023-03-24T15:03:40.197Z,15.20
2023-03-24T15:06:22.992Z,14.90
2023-03-24T15:08:50.680Z,14.40
2023-03-24T15:11:19.360Z,14.70
2023-03-24T15:13:56.038Z,14.50
2023-03-24T15:16:25.820Z,14.40
2023-03-24T15:19:00.537Z,14.30
2023-03-24T15:21:36.121Z,14.30
2023-03-24T15:24:16.702Z,14.30
2023-03-24T15:26:43.295Z,14.20
2023-03-24T15:29:10.798Z,14.20
2023-03-24T15:31:39.245Z,13.90
2023-03-24T15:34:25.532Z,13.80
2023-03-24T15:36:57.316Z,13.80
2023-03-24T15:39:26.260Z,13.60
2023-03-24T15:41:53.206Z,13.60
2023-03-24T15:44:21.311Z,13.60
2023-03-24T15:46:48.735Z,13.50
2023-03-24T15:49:41.390Z,13.50
2023-03-24T15:52:23.503Z,13.50
2023-03-24T15:54:51.378Z,13.50
2023-03-24T15:57:19.238Z,13.40
2023-03-24T15:59:50.338Z,13.40
2023-03-24T16:02:39.005Z,13.30
2023-03-24T16:05:13.155Z,13.40
2023-03-24T16:07:41.273Z,13.30
2023-03-24T16:10:25.216Z,13.30
2023-03-24T16:12:51.780Z,13.30
2023-03-24T16:15:18.337Z,13.20
2023-03-24T16:17:45.434Z,13.20
2023-03-24T16:20:19.780Z,13.10
2023-03-24T16:22:46.860Z,13.10
2023-03-24T16:25:14.399Z,13.10
2023-03-24T16:27:41.188Z,13.10
2023-03-24T16:30:16.615Z,13.00
2023-03-24T16:32:43.192Z,13.00
2023-03-24T16:35:10.607Z,13.00
2023-03-24T16:37:37.209Z,13.00
2023-03-24T16:40:11.865Z,13.00
2023-03-24T16:42:38.430Z,12.90
2023-03-24T16:45:05.496Z,12.90
2023-03-24T16:47:32.088Z,12.90
2023-03-24T16:49:58.651Z,12.90
2023-03-24T16:52:25.220Z,12.80
2023-03-24T16:54:51.802Z,12.90
2023-03-24T16:57:18.382Z,12.80
2023-03-24T16:59:44.953Z,12.80
2023-03-24T17:02:11.485Z,12.80
2023-03-24T17:04:38.095Z,12.80
2023-03-24T17:07:04.681Z,12.80
2023-03-24T17:09:32.180Z,12.80
2023-03-24T17:12:00.528Z,13.00
2023-03-24T17:14:27.324Z,12.70
2023-03-24T17:16:54.104Z,12.80
2023-03-24T17:19:21.809Z,12.70
2023-03-24T17:22:02.412Z,12.70
2023-03-24T17:24:35.602Z,12.70
2023-03-24T17:27:03.237Z,12.60
2023-03-24T17:29:29.788Z,12.60
2023-03-24T17:31:56.381Z,12.70
2023-03-24T17:34:22.936Z,12.60
2023-03-24T17:36:50.690Z,12.60
2023-03-24T17:39:18.321Z,12.60
2023-03-24T17:41:45.142Z,12.50
2023-03-24T17:44:11.819Z,12.50
2023-03-24T17:46:38.702Z,12.50
2023-03-24T17:49:05.495Z,12.40
2023-03-24T17:51:32.039Z,12.50
2023-03-24T17:53:59.767Z,12.40
2023-03-24T17:56:26.392Z,12.40
2023-03-24T17:58:54.719Z,12.40
2023-03-24T18:01:21.874Z,12.40
2023-03-24T18:03:49.821Z,12.30
2023-03-24T18:06:16.780Z,12.30
2023-03-24T18:08:43.540Z,12.30
2023-03-24T18:11:11.555Z,12.30
2023-03-24T18:13:38.157Z,12.30
2023-03-24T18:16:19.999Z,12.40
2023-03-24T18:18:48.153Z,12.20
2023-03-24T18:21:14.790Z,12.20
2023-03-24T18:23:41.481Z,12.10
2023-03-24T18:26:08.175Z,12.20
2023-03-24T18:28:37.231Z,12.10
2023-03-24T18:31:08.695Z,12.10
2023-03-24T18:33:35.395Z,12.10
2023-03-24T18:36:01.989Z,12.10
2023-03-24T18:38:28.568Z,12.00
2023-03-24T18:41:02.985Z,12.00
2023-03-24T18:43:30.554Z,11.90
2023-03-24T18:45:57.560Z,11.90
2023-03-24T18:48:24.172Z,11.70
2023-03-24T18:50:51.842Z,11.90
2023-03-24T18:53:18.789Z,11.80
2023-03-24T18:55:46.557Z,11.90
2023-03-24T18:58:15.261Z,11.80
2023-03-24T19:00:42.862Z,11.70
2023-03-24T19:03:10.008Z,11.70
2023-03-24T19:05:36.725Z,11.70
2023-03-24T19:08:07.419Z,11.70
2023-03-24T19:10:35.013Z,11.60
2023-03-24T19:13:02.739Z,11.60
2023-03-24T19:15:29.938Z,11.80
2023-03-24T19:17:58.671Z,12.30
2023-03-24T19:20:25.986Z,12.90
2023-03-24T19:22:55.604Z,13.10
2023-03-24T19:25:22.865Z,13.00
2023-03-24T19:27:49.447Z,13.20
2023-03-24T19:30:17.096Z,13.20
2023-03-24T19:32:44.282Z,13.30
2023-03-24T19:35:10.940Z,13.50
2023-03-24T19:37:37.632Z,13.60
2023-03-24T19:40:07.477Z,13.20
2023-03-24T19:42:34.080Z,12.80
2023-03-24T19:45:00.824Z,12.50
2023-03-24T19:47:27.339Z,12.20
2023-03-24T19:49:56.791Z,12.00
2023-03-24T19:52:23.405Z,11.80
2023-03-24T19:54:52.488Z,11.70
2023-03-24T19:57:19.332Z,11.60
2023-03-24T19:59:46.066Z,11.50
2023-03-24T20:02:16.785Z,11.40
2023-03-24T20:04:43.818Z,11.40
2023-03-24T20:07:10.918Z,11.50
2023-03-24T20:09:37.730Z,11.30
2023-03-24T20:12:04.681Z,11.20
2023-03-24T20:14:31.874Z,11.10
2023-03-24T20:16:59.036Z,11.10
2023-03-24T20:19:25.931Z,11.10
2023-03-24T20:21:52.563Z,11.00
2023-03-24T20:24:19.353Z,11.00
2023-03-24T20:26:48.337Z,11.00
2023-03-24T20:29:15.345Z,11.00
2023-03-24T20:31:42.870Z,11.00
2023-03-24T20:34:10.780Z,10.90
2023-03-24T20:36:38.436Z,10.90
2023-03-24T20:39:05.917Z,10.90
2023-03-24T20:41:32.806Z,10.80
2023-03-24T20:43:59.369Z,10.80
2023-03-24T20:46:26.203Z,10.80
2023-03-24T20:48:52.811Z,10.80
2023-03-24T20:51:19.428Z,10.80
2023-03-24T20:53:49.652Z,10.80
2023-03-24T20:56:16.846Z,10.80
2023-03-24T20:58:45.282Z,10.80
2023-03-24T21:01:20.426Z,10.70
2023-03-24T21:03:50.713Z,10.70
2023-03-24T21:06:17.938Z,10.70
2023-03-24T21:08:45.327Z,10.70
2023-03-24T21:11:12.616Z,10.70
2023-03-24T21:13:39.189Z,10.70
2023-03-24T21:16:08.221Z,10.60
2023-03-24T21:18:36.251Z,10.60
2023-03-24T21:21:03.743Z,10.50
2023-03-24T21:23:39.002Z,10.50
2023-03-24T21:26:06.584Z,10.50
2023-03-24T21:28:33.692Z,10.50
2023-03-24T21:31:06.693Z,10.40
2023-03-24T21:33:33.314Z,10.50
2023-03-24T21:35:59.942Z,10.40
2023-03-24T21:38:27.042Z,10.30
2023-03-24T21:40:58.467Z,10.30
2023-03-24T21:43:26.974Z,10.30
2023-03-24T21:45:54.422Z,10.30
2023-03-24T21:48:21.437Z,10.30
2023-03-24T21:50:52.350Z,10.40
2023-03-24T21:53:20.776Z,10.30
2023-03-24T21:55:52.116Z,10.20
2023-03-24T21:58:19.425Z,10.20
2023-03-24T22:00:46.942Z,10.20
2023-03-24T22:03:13.755Z,10.20
2023-03-24T22:05:40.658Z,10.10
2023-03-24T22:08:07.639Z,10.10
2023-03-24T22:10:34.996Z,10.00
2023-03-24T22:13:02.814Z,10.10
2023-03-24T22:15:32.463Z,10.00
2023-03-24T22:17:59.657Z,10.10
2023-03-24T22:20:28.099Z,10.10
2023-03-24T22:22:54.857Z,10.20
2023-03-24T22:25:21.478Z,10.00
2023-03-24T22:27:50.651Z,10.00
2023-03-24T22:30:18.724Z,9.90
2023-03-24T22:32:45.308Z,10.00
2023-03-24T22:35:11.941Z,10.00
2023-03-24T22:37:38.496Z,10.00
2023-03-24T22:40:05.750Z,10.00
2023-03-24T22:42:32.328Z,10.00
2023-03-24T22:44:58.840Z,10.10
2023-03-24T22:47:25.628Z,10.10
2023-03-24T22:49:52.165Z,10.10
2023-03-24T22:52:18.819Z,10.10
2023-03-24T22:54:45.391Z,10.20
2023-03-24T22:57:12.012Z,10.20
2023-03-24T22:59:38.665Z,10.20
2023-03-24T23:02:09.940Z,10.30
2023-03-24T23:04:37.221Z,10.30
2023-03-24T23:07:06.130Z,10.30
2023-03-24T23:09:33.238Z,10.40
2023-03-24T23:11:59.798Z,10.40
2023-03-24T23:14:26.405Z,10.40
2023-03-24T23:16:54.278Z,10.40
2023-03-24T23:19:20.873Z,10.40
2023-03-24T23:21:47.414Z,10.40
2023-03-24T23:24:13.994Z,10.40
2023-03-24T23:26:40.670Z,10.40
2023-03-24T23:29:07.326Z,10.40
2023-03-24T23:31:35.594Z,10.40
2023-03-24T23:34:04.349Z,10.40
2023-03-24T23:36:34.141Z,10.50
2023-03-24T23:39:01.129Z,10.60
2023-03-24T23:41:27.729Z,10.40
2023-03-24T23:43:55.140Z,10.50
2023-03-24T23:46:23.805Z,10.50
2023-03-24T23:48:50.834Z,10.50
2023-03-24T23:51:17.666Z,10.40
2023-03-24T23:53:44.387Z,10.50
2023-03-24T23:56:12.550Z,10.50
2023-03-24T23:58:40.286Z,10.50
